Time;durP1;ratioP1;P1;durP2;ratioP2;P2;SDS_P1;SDS_P2;PMS_P1;PMS_P2;Temp;Humidity;BMP_temperature;BMP_pressure;BME280_temperature;BME280_humidity;BME280_pressure;Samples;Min_cycle;Max_cycle;Signal;HPM_P1;HPM_P2
2022/10/05 00:01:23;;;;;;;9.47;7.47;;;10.30;99.90;;;;;;5115120;28;20203;-70
2022/10/05 00:03:49;;;;;;;9.30;6.97;;;10.30;99.90;;;;;;5115307;28;20527;-71
2022/10/05 00:06:15;;;;;;;20.50;7.97;;;10.30;99.90;;;;;;5118288;27;20207;-71
2022/10/05 00:08:42;;;;;;;12.10;7.47;;;10.30;99.90;;;;;;5137131;27;20169;-70
2022/10/05 00:11:08;;;;;;;10.67;7.30;;;10.40;99.90;;;;;;5136640;27;20734;-70
2022/10/05 00:13:34;;;;;;;10.90;7.73;;;10.40;99.90;;;;;;5136803;27;20627;-70
2022/10/05 00:16:09;;;;;;;10.40;7.73;;;10.40;99.90;;;;;;5135387;27;20187;-71
2022/10/05 00:18:35;;;;;;;9.40;7.50;;;10.40;99.90;;;;;;5135123;27;20175;-71
2022/10/05 00:21:01;;;;;;;10.10;7.40;;;10.40;99.90;;;;;;5135213;27;20226;-71
2022/10/05 00:23:30;;;;;;;11.07;7.40;;;10.40;99.90;;;;;;5135712;27;20168;-71
2022/10/05 00:26:13;;;;;;;9.37;7.03;;;10.40;99.90;;;;;;5136004;27;20668;-71
2022/10/05 00:28:40;;;;;;;12.80;7.63;;;10.40;99.90;;;;;;5124992;27;20602;-71
2022/10/05 00:31:14;;;;;;;10.93;7.57;;;10.40;99.90;;;;;;5115810;27;20188;-71
2022/10/05 00:33:39;;;;;;;9.13;7.07;;;10.30;99.90;;;;;;5114975;28;20636;-71
2022/10/05 00:36:06;;;;;;;9.63;7.40;;;10.30;99.90;;;;;;5114877;27;20180;-70
2022/10/05 00:38:32;;;;;;;11.87;7.77;;;10.30;99.90;;;;;;5136764;27;20220;-71
2022/10/05 00:41:22;;;;;;;12.67;7.30;;;10.30;99.90;;;;;;5134995;27;20549;-71
2022/10/05 00:44:16;;;;;;;10.00;7.77;;;10.30;99.90;;;;;;5136069;27;20183;-71
2022/10/05 00:47:11;;;;;;;8.50;6.78;;;10.30;99.90;;;;;;5136054;27;20266;-72
2022/10/05 00:49:40;;;;;;;10.60;7.50;;;10.30;99.90;;;;;;5135990;27;20148;-71
2022/10/05 00:52:48;;;;;;;12.20;7.57;;;10.30;99.90;;;;;;5135854;27;20195;-71
2022/10/05 00:55:23;;;;;;;9.83;7.90;;;10.30;99.90;;;;;;5092821;28;20185;-70
2022/10/05 00:58:03;;;;;;;10.00;7.10;;;10.20;99.90;;;;;;5127392;27;20199;-70
2022/10/05 01:00:34;;;;;;;11.17;7.30;;;10.20;99.90;;;;;;5114693;28;20549;-70
2022/10/05 01:03:22;;;;;;;12.70;7.57;;;10.20;99.90;;;;;;5115640;28;20167;-71
2022/10/05 01:05:51;;;;;;;9.97;7.30;;;10.20;99.90;;;;;;5115745;28;20219;-70
2022/10/05 01:08:44;;;;;;;10.00;6.90;;;10.20;99.90;;;;;;5134301;27;20539;-71
2022/10/05 01:11:17;;;;;;;12.17;7.53;;;10.20;99.90;;;;;;5135728;27;20192;-71
2022/10/05 01:14:01;;;;;;;9.53;6.70;;;10.20;99.90;;;;;;5135694;27;20148;-70
2022/10/05 01:16:29;;;;;;;8.47;6.80;;;10.20;99.90;;;;;;5136307;27;20221;-70
2022/10/05 01:19:16;;;;;;;11.67;7.23;;;10.20;99.90;;;;;;5135459;27;20168;-70
2022/10/05 01:21:57;;;;;;;9.30;6.83;;;10.10;99.90;;;;;;5134048;27;20192;-71
2022/10/05 01:24:57;;;;;;;12.77;7.03;;;10.10;99.90;;;;;;5135440;27;20198;-70
2022/10/05 01:27:36;;;;;;;10.37;6.83;;;10.10;99.90;;;;;;5134848;27;20160;-70
2022/10/05 01:30:13;;;;;;;9.50;7.27;;;10.00;99.90;;;;;;5115336;28;20153;-70
2022/10/05 01:32:54;;;;;;;9.90;6.67;;;9.90;99.90;;;;;;5113612;28;20684;-70
2022/10/05 01:35:54;;;;;;;9.27;6.87;;;9.90;99.90;;;;;;5113577;28;20180;-71
2022/10/05 01:38:43;;;;;;;11.33;6.83;;;9.90;99.90;;;;;;5132037;27;20226;-70
2022/10/05 01:41:18;;;;;;;11.30;6.40;;;9.80;99.90;;;;;;5134810;27;20244;-71
2022/10/05 01:44:34;;;;;;;13.57;7.50;;;9.80;99.90;;;;;;5135172;27;20177;-71
2022/10/05 01:47:08;;;;;;;8.10;6.90;;;9.80;99.90;;;;;;5117105;27;20192;-71
2022/10/05 01:50:06;;;;;;;9.50;7.17;;;9.80;99.90;;;;;;5135258;27;20156;-71
2022/10/05 01:53:09;;;;;;;11.60;7.80;;;9.80;99.90;;;;;;5135044;27;20172;-70
2022/10/05 01:56:12;;;;;;;8.87;7.30;;;9.80;99.90;;;;;;5134969;27;20175;-70
2022/10/05 01:58:59;;;;;;;11.03;7.63;;;9.80;99.90;;;;;;5122095;27;20187;-71
2022/10/05 02:01:43;;;;;;;14.03;7.70;;;9.80;99.90;;;;;;5113141;28;20226;-71
2022/10/05 02:04:14;;;;;;;10.47;7.50;;;9.80;99.90;;;;;;5113186;28;20607;-72
2022/10/05 02:06:45;;;;;;;9.23;7.57;;;9.80;99.90;;;;;;5120305;27;20340;-71
2022/10/05 02:09:21;;;;;;;11.13;7.43;;;9.80;99.90;;;;;;5135204;27;20182;-71
2022/10/05 02:11:53;;;;;;;16.50;8.00;;;9.70;99.90;;;;;;5134819;27;20187;-71
2022/10/05 02:14:35;;;;;;;12.63;8.27;;;9.70;99.90;;;;;;5133460;27;20620;-71
2022/10/05 02:17:24;;;;;;;10.33;7.50;;;9.70;99.90;;;;;;5135119;27;20175;-71
2022/10/05 02:19:57;;;;;;;10.47;7.60;;;9.70;99.90;;;;;;5133473;28;20167;-71
2022/10/05 02:22:27;;;;;;;13.47;8.17;;;9.70;99.90;;;;;;5133498;28;20282;-71
2022/10/05 02:25:01;;;;;;;12.27;7.93;;;9.70;99.90;;;;;;5134574;27;20203;-71
2022/10/05 02:27:31;;;;;;;11.97;7.50;;;9.70;99.90;;;;;;5133351;27;20519;-70
2022/10/05 02:30:04;;;;;;;9.30;7.20;;;9.70;99.90;;;;;;5112823;28;20251;-70
2022/10/05 02:32:57;;;;;;;13.20;8.20;;;9.70;99.90;;;;;;5112689;28;20169;-71
2022/10/05 02:35:23;;;;;;;10.60;7.10;;;9.70;99.90;;;;;;5109339;28;20188;-71
2022/10/05 02:37:56;;;;;;;10.47;7.87;;;9.70;99.90;;;;;;5129055;28;20180;-70
2022/10/05 02:40:42;;;;;;;11.17;7.13;;;9.70;99.90;;;;;;5134560;27;20200;-70
2022/10/05 02:43:23;;;;;;;9.60;7.23;;;9.70;99.90;;;;;;5134233;27;20188;-70
2022/10/05 02:46:27;;;;;;;10.30;7.80;;;9.70;99.90;;;;;;5134396;27;20191;-71
2022/10/05 02:49:28;;;;;;;12.70;8.50;;;9.70;99.90;;;;;;5119423;27;20525;-70
2022/10/05 02:52:08;;;;;;;10.77;7.87;;;9.70;99.90;;;;;;5138645;27;20240;-71
2022/10/05 02:55:04;;;;;;;12.23;8.00;;;9.70;99.90;;;;;;5139440;27;20541;-71
2022/10/05 02:57:42;;;;;;;12.00;8.23;;;9.70;99.90;;;;;;5127652;27;20199;-70
2022/10/05 03:00:16;;;;;;;14.67;8.13;;;9.70;99.90;;;;;;5118367;28;20253;-70
2022/10/05 03:02:53;;;;;;;11.30;7.70;;;9.70;99.90;;;;;;5117927;28;20667;-70
2022/10/05 03:05:49;;;;;;;9.30;7.67;;;9.70;99.90;;;;;;5116485;28;20192;-70
2022/10/05 03:08:31;;;;;;;11.47;7.93;;;9.70;99.90;;;;;;5136572;27;20178;-70
2022/10/05 03:11:34;;;;;;;9.83;7.73;;;9.60;99.90;;;;;;5138186;27;20184;-71
2022/10/05 03:14:19;;;;;;;10.10;7.70;;;9.70;99.90;;;;;;5138033;27;20584;-71
2022/10/05 03:17:03;;;;;;;11.77;7.97;;;9.70;99.90;;;;;;5138281;27;20235;-71
2022/10/05 03:20:01;;;;;;;13.70;8.23;;;9.70;99.90;;;;;;5137974;27;20152;-71
2022/10/05 03:22:49;;;;;;;10.87;7.33;;;9.70;99.90;;;;;;5134241;27;20204;-71
2022/10/05 03:25:52;;;;;;;8.77;7.40;;;9.60;99.90;;;;;;5137526;27;20229;-70
2022/10/05 03:28:22;;;;;;;10.87;8.10;;;9.70;99.90;;;;;;5127629;27;20184;-70
2022/10/05 03:30:56;;;;;;;12.50;7.50;;;9.70;99.90;;;;;;5117075;28;20188;-70
2022/10/05 03:33:46;;;;;;;12.00;7.47;;;9.70;99.90;;;;;;5117942;28;20481;-70
2022/10/05 03:36:37;;;;;;;11.03;8.10;;;9.70;99.90;;;;;;5118395;27;20164;-70
2022/10/05 03:39:21;;;;;;;12.50;7.50;;;9.70;99.90;;;;;;5136347;27;20643;-71
2022/10/05 03:41:57;;;;;;;15.83;7.90;;;9.60;99.90;;;;;;5137394;27;20220;-70
2022/10/05 03:44:35;;;;;;;12.37;8.13;;;9.70;99.90;;;;;;5136087;27;20242;-70
2022/10/05 03:47:32;;;;;;;11.13;7.83;;;9.70;99.90;;;;;;5137408;27;20163;-71
2022/10/05 03:50:29;;;;;;;9.87;8.03;;;9.70;99.90;;;;;;5112326;27;20233;-71
2022/10/05 03:53:21;;;;;;;9.67;7.60;;;9.70;99.90;;;;;;5137866;27;20153;-70
2022/10/05 03:56:18;;;;;;;12.93;8.60;;;9.70;99.90;;;;;;5137693;27;20693;-71
2022/10/05 03:58:56;;;;;;;10.73;7.83;;;9.70;99.90;;;;;;5115466;27;20228;-71
2022/10/05 04:01:26;;;;;;;13.33;8.33;;;9.70;99.90;;;;;;5115355;28;20192;-70
2022/10/05 04:03:59;;;;;;;9.70;7.50;;;9.70;99.90;;;;;;5117273;28;20210;-69
2022/10/05 04:06:50;;;;;;;9.20;8.17;;;9.70;99.90;;;;;;5119744;27;20286;-69
2022/10/05 04:09:28;;;;;;;10.90;8.20;;;9.70;99.90;;;;;;5136000;27;20506;-69
2022/10/05 04:12:10;;;;;;;12.97;8.33;;;9.70;99.90;;;;;;5135557;27;20196;-69
2022/10/05 04:14:49;;;;;;;10.87;8.23;;;9.70;99.90;;;;;;5136991;27;20183;-70
2022/10/05 04:17:41;;;;;;;11.83;8.10;;;9.70;99.90;;;;;;5137504;27;20168;-69
2022/10/05 04:20:52;;;;;;;9.07;7.90;;;9.70;99.90;;;;;;5135588;27;20179;-69
2022/10/05 04:23:39;;;;;;;13.53;8.80;;;9.60;99.90;;;;;;5134682;27;20188;-68
2022/10/05 04:26:13;;;;;;;12.90;8.47;;;9.60;99.90;;;;;;5136565;27;20247;-69
2022/10/05 04:28:51;;;;;;;11.77;8.00;;;9.60;99.90;;;;;;5124987;27;20180;-69
2022/10/05 04:31:34;;;;;;;12.60;9.20;;;9.50;99.90;;;;;;5114705;28;20188;-68
2022/10/05 04:34:15;;;;;;;13.80;8.87;;;9.60;99.90;;;;;;5116198;28;20605;-69
2022/10/05 04:36:54;;;;;;;10.83;8.13;;;9.50;99.90;;;;;;5121353;27;20183;-69
2022/10/05 04:39:48;;;;;;;12.77;8.80;;;9.50;99.90;;;;;;5136595;27;20167;-69
2022/10/05 04:42:31;;;;;;;12.90;8.20;;;9.50;99.90;;;;;;5135470;27;20223;-69
2022/10/05 04:45:25;;;;;;;10.50;8.03;;;9.50;99.90;;;;;;5136526;27;20192;-69
2022/10/05 04:48:02;;;;;;;11.50;8.43;;;9.50;99.90;;;;;;5136869;27;20160;-69
2022/10/05 04:51:05;;;;;;;14.10;9.53;;;9.40;99.90;;;;;;5136472;27;20184;-70
2022/10/05 04:53:50;;;;;;;16.57;9.90;;;9.50;99.90;;;;;;5136183;27;20191;-68
2022/10/05 04:56:33;;;;;;;15.97;9.23;;;9.70;99.90;;;;;;5136115;27;20160;-69
2022/10/05 04:59:14;;;;;;;16.50;10.80;;;9.80;99.90;;;;;;5120300;27;20220;-69
2022/10/05 05:02:02;;;;;;;16.77;11.43;;;9.90;99.90;;;;;;5115326;28;20192;-69
2022/10/05 05:04:56;;;;;;;16.73;11.67;;;10.00;99.90;;;;;;5113928;28;20199;-69
2022/10/05 05:07:22;;;;;;;18.93;11.60;;;10.20;99.90;;;;;;5126426;27;20179;-69
2022/10/05 05:10:24;;;;;;;20.30;11.63;;;10.30;99.90;;;;;;5134569;27;20182;-69
2022/10/05 05:13:08;;;;;;;20.70;11.83;;;10.40;99.90;;;;;;5135548;27;20152;-69
2022/10/05 05:15:45;;;;;;;14.47;10.60;;;10.60;99.90;;;;;;5134487;27;20692;-69
2022/10/05 05:18:19;;;;;;;16.87;11.63;;;10.60;99.90;;;;;;5136270;27;20661;-68
2022/10/05 05:21:08;;;;;;;16.63;12.03;;;10.60;99.90;;;;;;5136229;27;20191;-68
2022/10/05 05:24:08;;;;;;;16.77;11.90;;;10.70;99.90;;;;;;5135513;27;20180;-68
2022/10/05 05:26:57;;;;;;;16.23;11.00;;;10.70;99.90;;;;;;5136053;27;20172;-69
2022/10/05 05:30:02;;;;;;;19.83;12.33;;;10.70;99.90;;;;;;5117490;27;20188;-69
2022/10/05 05:32:37;;;;;;;17.50;11.10;;;10.70;99.90;;;;;;5114592;28;20187;-68
2022/10/05 05:35:03;;;;;;;16.37;10.83;;;10.80;99.90;;;;;;5114518;28;20160;-68
2022/10/05 05:37:37;;;;;;;16.27;11.37;;;10.80;99.90;;;;;;5126952;27;20525;-69
2022/10/05 05:40:06;;;;;;;17.70;11.73;;;10.80;99.90;;;;;;5135055;27;20164;-69
2022/10/05 05:43:23;;;;;;;16.27;11.30;;;10.80;99.90;;;;;;5134635;27;20290;-69
2022/10/05 05:46:34;;;;;;;15.30;11.30;;;10.90;99.90;;;;;;5117153;27;20215;-69
2022/10/05 05:49:09;;;;;;;17.40;11.90;;;10.90;99.90;;;;;;5092111;28;20185;-69
2022/10/05 05:51:42;;;;;;;19.83;11.93;;;10.90;99.90;;;;;;5132220;27;20210;-69
2022/10/05 05:54:22;;;;;;;15.70;11.70;;;11.00;99.90;;;;;;5135108;27;20164;-69
2022/10/05 05:57:18;;;;;;;18.43;11.50;;;11.00;99.90;;;;;;5133596;27;20173;-69
2022/10/05 06:00:02;;;;;;;17.17;11.57;;;11.10;99.90;;;;;;5091247;28;20227;-69
2022/10/05 06:02:40;;;;;;;17.43;11.57;;;11.20;99.90;;;;;;5092710;28;20201;-69
2022/10/05 06:05:29;;;;;;;23.03;11.97;;;11.20;99.90;;;;;;5094162;28;20188;-69
2022/10/05 06:07:57;;;;;;;15.70;11.23;;;11.20;99.90;;;;;;5125389;27;20183;-68
2022/10/05 06:10:48;;;;;;;17.57;11.10;;;11.20;99.90;;;;;;5134866;27;20623;-68
2022/10/05 06:13:40;;;;;;;17.30;11.77;;;11.30;99.90;;;;;;5134470;27;20172;-68
2022/10/05 06:16:22;;;;;;;16.53;10.20;;;11.40;99.90;;;;;;5132435;27;20187;-68
2022/10/05 06:18:55;;;;;;;17.67;11.27;;;11.40;99.90;;;;;;5134520;27;20184;-69
2022/10/05 06:21:43;;;;;;;16.47;10.70;;;11.40;99.90;;;;;;5134790;27;20604;-68
2022/10/05 06:24:17;;;;;;;15.27;10.67;;;11.50;99.90;;;;;;5135906;27;20663;-69
2022/10/05 06:26:58;;;;;;;16.40;10.57;;;11.50;99.90;;;;;;5139516;27;20164;-69
2022/10/05 06:29:32;;;;;;;16.63;10.70;;;11.60;99.90;;;;;;5119918;27;20218;-68
2022/10/05 06:32:24;;;;;;;14.48;9.65;;;11.60;99.90;;;;;;5116978;28;20278;-69
2022/10/05 06:35:12;;;;;;;13.40;9.65;;;11.70;99.90;;;;;;5116422;28;20660;-68
2022/10/05 06:37:40;;;;;;;14.70;9.40;;;11.70;99.90;;;;;;5130429;27;20179;-69
2022/10/05 06:40:21;;;;;;;15.10;9.73;;;11.80;99.90;;;;;;5137594;27;20180;-69
2022/10/05 06:43:08;;;;;;;15.05;9.77;;;11.80;99.90;;;;;;5138563;27;20187;-69
2022/10/05 06:46:04;;;;;;;17.13;9.90;;;11.90;99.90;;;;;;5138806;27;20191;-69
2022/10/05 06:48:49;;;;;;;14.60;8.85;;;12.00;99.90;;;;;;5135103;27;20226;-69
2022/10/05 06:51:29;;;;;;;12.90;8.90;;;12.00;99.90;;;;;;5138971;27;20534;-69
2022/10/05 06:54:06;;;;;;;14.05;9.70;;;12.10;99.90;;;;;;5138611;27;20184;-69
2022/10/05 06:56:37;;;;;;;15.80;10.35;;;12.10;99.90;;;;;;5139206;27;20163;-69
2022/10/05 06:59:16;;;;;;;15.88;9.13;;;12.10;99.90;;;;;;5123435;27;20615;-69
2022/10/05 07:02:02;;;;;;;10.80;8.27;;;12.20;99.90;;;;;;5116560;28;20192;-69
2022/10/05 07:04:36;;;;;;;12.57;9.00;;;12.30;99.90;;;;;;5116549;28;20204;-68
2022/10/05 07:07:13;;;;;;;11.63;9.02;;;12.30;99.90;;;;;;5126008;27;20232;-69
2022/10/05 07:09:43;;;;;;;9.85;7.93;;;12.50;99.90;;;;;;5138478;27;20231;-69
2022/10/05 07:12:33;;;;;;;13.13;7.78;;;12.60;99.90;;;;;;5137942;27;20209;-68
2022/10/05 07:15:23;;;;;;;8.98;7.35;;;12.70;99.90;;;;;;5138179;27;20166;-69
2022/10/05 07:18:06;;;;;;;8.55;7.30;;;12.80;99.90;;;;;;5136712;27;20175;-69
2022/10/05 07:20:53;;;;;;;11.02;7.97;;;12.90;99.90;;;;;;5138220;27;20663;-69
2022/10/05 07:23:27;;;;;;;8.95;7.28;;;12.90;99.90;;;;;;5130331;27;20652;-69
2022/10/05 07:26:13;;;;;;;9.60;7.35;;;13.10;99.90;;;;;;5138126;27;20222;-66
2022/10/05 07:28:51;;;;;;;7.75;6.43;;;13.20;99.90;;;;;;5125956;27;20187;-66
2022/10/05 07:31:26;;;;;;;9.90;6.97;;;13.30;99.90;;;;;;5117329;28;20257;-69
2022/10/05 07:34:08;;;;;;;8.27;6.75;;;13.30;99.90;;;;;;5117014;28;20625;-70
2022/10/05 07:40:19;;;;;;;12.30;7.35;;;13.30;99.90;;;;;;5138289;27;20213;-69
2022/10/05 07:43:10;;;;;;;10.55;7.50;;;13.40;99.90;;;;;;5099260;27;20610;-70
2022/10/05 07:45:54;;;;;;;7.60;6.40;;;13.40;99.90;;;;;;5132338;27;20208;-70
2022/10/05 07:48:36;;;;;;;10.07;6.93;;;13.50;99.90;;;;;;5137615;27;20245;-66
2022/10/05 07:51:43;;;;;;;9.38;6.68;;;13.60;99.90;;;;;;5137130;27;20216;-68
2022/10/05 07:54:30;;;;;;;9.35;7.22;;;13.70;99.90;;;;;;5106246;27;20180;-69
2022/10/05 07:57:19;;;;;;;8.55;6.93;;;13.70;99.90;;;;;;5135769;27;20175;-68
2022/10/05 08:00:02;;;;;;;9.07;6.93;;;13.70;99.90;;;;;;5095630;28;20190;-68
2022/10/05 08:02:48;;;;;;;9.05;7.43;;;13.80;99.90;;;;;;5095956;28;20193;-68
2022/10/05 08:05:37;;;;;;;9.75;7.07;;;13.80;99.90;;;;;;5096294;28;20274;-68
2022/10/05 08:08:05;;;;;;;8.43;7.25;;;13.90;99.90;;;;;;5130063;27;20267;-68
2022/10/05 08:10:43;;;;;;;9.60;6.93;;;13.80;99.90;;;;;;5136701;27;20192;-68
2022/10/05 08:13:30;;;;;;;9.95;7.10;;;13.80;99.90;;;;;;5135510;27;20192;-69
2022/10/05 08:16:03;;;;;;;8.57;7.15;;;13.80;99.90;;;;;;5137035;27;20160;-71
2022/10/05 08:18:52;;;;;;;13.27;7.80;;;13.80;99.90;;;;;;5137014;27;20206;-71
2022/10/05 08:21:32;;;;;;;7.07;6.35;;;13.90;99.90;;;;;;5135425;27;20217;-71
2022/10/05 08:24:04;;;;;;;9.02;6.80;;;13.90;99.90;;;;;;5135339;27;20172;-71
2022/10/05 08:26:53;;;;;;;7.55;6.75;;;13.90;99.90;;;;;;5136567;27;20188;-71
2022/10/05 08:29:54;;;;;;;11.60;6.88;;;13.90;99.90;;;;;;5119188;27;20272;-71
2022/10/05 08:32:29;;;;;;;9.63;7.15;;;13.90;99.90;;;;;;5106442;28;20199;-71
2022/10/05 08:35:32;;;;;;;8.40;7.00;;;14.00;99.90;;;;;;5114726;28;20172;-71
2022/10/05 08:38:02;;;;;;;7.25;6.55;;;14.00;99.90;;;;;;5132640;27;20175;-71
2022/10/05 08:40:53;;;;;;;10.00;7.13;;;14.10;99.90;;;;;;5134985;27;20244;-71
2022/10/05 08:43:45;;;;;;;9.98;7.00;;;14.10;99.90;;;;;;5136455;27;20221;-71
2022/10/05 08:46:29;;;;;;;7.10;6.40;;;14.10;99.90;;;;;;5131828;27;20605;-71
2022/10/05 08:49:22;;;;;;;6.95;6.25;;;14.20;99.90;;;;;;5134286;27;20171;-71
2022/10/05 08:51:59;;;;;;;10.07;7.22;;;14.20;99.90;;;;;;5136224;27;20187;-71
2022/10/05 08:55:03;;;;;;;10.13;6.25;;;14.20;99.90;;;;;;5136404;27;20151;-71
2022/10/05 08:58:02;;;;;;;7.28;5.90;;;14.30;99.90;;;;;;5133100;27;20175;-71
2022/10/05 09:00:56;;;;;;;8.38;6.20;;;14.30;99.90;;;;;;5114080;28;20192;-71
2022/10/05 09:03:40;;;;;;;7.35;6.10;;;14.40;99.90;;;;;;5113988;28;20180;-71
2022/10/05 09:06:18;;;;;;;7.47;6.03;;;14.40;99.90;;;;;;5114452;27;20192;-71
2022/10/05 09:09:06;;;;;;;9.40;6.50;;;14.60;99.90;;;;;;5135988;27;20164;-71
2022/10/05 09:11:34;;;;;;;6.85;6.15;;;14.60;99.90;;;;;;5135593;27;20183;-71
2022/10/05 09:14:06;;;;;;;7.10;6.40;;;14.70;99.90;;;;;;5134257;27;20180;-71
2022/10/05 09:16:49;;;;;;;10.27;6.60;;;14.80;99.90;;;;;;5135859;27;20156;-71
2022/10/05 09:19:40;;;;;;;8.68;6.00;;;14.80;99.90;;;;;;5134321;27;20240;-71
2022/10/05 09:22:24;;;;;;;10.43;6.18;;;14.90;99.90;;;;;;5135496;27;20282;-71
2022/10/05 09:25:18;;;;;;;6.75;5.60;;;15.00;99.90;;;;;;5135324;27;20186;-71
2022/10/05 09:28:09;;;;;;;6.28;5.65;;;15.00;99.90;;;;;;5121502;27;20702;-71
2022/10/05 09:31:16;;;;;;;9.32;5.70;;;15.10;99.90;;;;;;5114885;28;20261;-71
2022/10/05 09:33:55;;;;;;;9.75;6.60;;;15.20;99.90;;;;;;5105460;28;20188;-71
2022/10/05 09:36:52;;;;;;;6.40;5.80;;;15.30;99.90;;;;;;5115982;27;20176;-71
2022/10/05 09:39:56;;;;;;;8.07;6.03;;;15.40;99.90;;;;;;5135160;27;20186;-71
2022/10/05 09:42:39;;;;;;;6.93;5.00;;;15.50;99.90;;;;;;5132680;27;20253;-71
2022/10/05 09:45:38;;;;;;;9.05;6.20;;;15.60;99.90;;;;;;5134894;27;20191;-71
2022/10/05 09:48:10;;;;;;;6.88;5.72;;;15.60;99.90;;;;;;5135097;27;20171;-72
2022/10/05 09:51:23;;;;;;;7.25;5.68;;;15.70;99.90;;;;;;5133575;27;20187;-71
2022/10/05 09:54:04;;;;;;;7.18;4.93;;;15.80;99.90;;;;;;5128642;27;20180;-71
2022/10/05 09:56:48;;;;;;;6.75;5.00;;;15.80;99.90;;;;;;5134693;27;20171;-71
2022/10/05 09:59:41;;;;;;;5.30;4.78;;;16.00;99.90;;;;;;5116902;27;20230;-71
2022/10/05 10:02:15;;;;;;;5.60;4.97;;;16.10;99.90;;;;;;5114282;28;20283;-71
2022/10/05 10:05:04;;;;;;;5.57;4.90;;;16.10;99.90;;;;;;5112968;28;20615;-71
2022/10/05 10:07:38;;;;;;;5.32;4.40;;;16.20;99.90;;;;;;5126628;27;20172;-71
2022/10/05 10:10:33;;;;;;;6.35;4.80;;;16.20;99.90;;;;;;5133475;27;20163;-71
2022/10/05 10:13:21;;;;;;;5.85;4.53;;;16.20;99.90;;;;;;5133361;27;20160;-71
2022/10/05 10:15:56;;;;;;;5.20;4.70;;;16.20;99.90;;;;;;5133482;27;20168;-71
2022/10/05 10:18:25;;;;;;;5.57;4.55;;;16.20;99.90;;;;;;5134714;27;20350;-71
2022/10/05 10:20:56;;;;;;;5.72;4.25;;;16.20;99.90;;;;;;5133659;28;20191;-71
2022/10/05 10:23:50;;;;;;;5.43;4.50;;;16.30;99.90;;;;;;5134764;27;20171;-71
2022/10/05 10:26:40;;;;;;;4.80;4.40;;;16.30;99.90;;;;;;5111835;28;20682;-71
2022/10/05 10:29:24;;;;;;;4.63;4.15;;;16.20;99.90;;;;;;5119352;27;20265;-71
2022/10/05 10:32:18;;;;;;;4.05;3.65;;;16.10;99.90;;;;;;5115000;28;20189;-69
2022/10/05 10:35:03;;;;;;;5.80;4.22;;;16.10;99.90;;;;;;5113701;28;20173;-71
2022/10/05 10:37:50;;;;;;;4.65;4.15;;;16.00;99.90;;;;;;5124946;28;20212;-71
2022/10/05 10:40:41;;;;;;;4.78;4.13;;;16.00;99.90;;;;;;5134975;28;20527;-71
2022/10/05 10:43:30;;;;;;;6.07;4.13;;;16.10;99.90;;;;;;5135250;27;20214;-71
2022/10/05 10:46:09;;;;;;;4.15;3.75;;;16.10;99.90;;;;;;5133510;28;20567;-67
2022/10/05 10:48:50;;;;;;;5.45;4.00;;;16.00;99.90;;;;;;5135157;27;20191;-67
2022/10/05 10:51:40;;;;;;;6.80;3.90;;;16.00;99.90;;;;;;5134434;27;20183;-67
2022/10/05 10:54:33;;;;;;;7.53;4.43;;;16.00;99.90;;;;;;5134295;27;20159;-67
2022/10/05 10:57:07;;;;;;;5.95;3.90;;;16.00;99.90;;;;;;5134224;27;20152;-67
2022/10/05 10:59:54;;;;;;;5.38;4.38;;;16.00;99.90;;;;;;5114903;27;20686;-67
2022/10/05 11:02:36;;;;;;;6.03;4.30;;;16.00;99.90;;;;;;5113539;28;20200;-67
2022/10/05 11:05:23;;;;;;;5.25;4.28;;;16.10;99.90;;;;;;5112070;28;20200;-67
2022/10/05 11:07:57;;;;;;;6.60;4.22;;;16.20;99.90;;;;;;5128693;28;20184;-67
2022/10/05 11:10:51;;;;;;;6.93;4.35;;;16.20;99.90;;;;;;5135421;27;20171;-68
2022/10/05 11:13:20;;;;;;;4.43;4.03;;;16.30;99.90;;;;;;5136832;27;20168;-67
2022/10/05 11:16:06;;;;;;;4.43;4.03;;;16.40;99.90;;;;;;5136783;27;20171;-67
2022/10/05 11:18:56;;;;;;;4.10;3.78;;;16.50;99.90;;;;;;5138296;27;20160;-67
2022/10/05 11:21:35;;;;;;;6.40;4.07;;;16.50;99.90;;;;;;5136554;27;20278;-65
2022/10/05 11:24:20;;;;;;;4.18;3.78;;;16.70;99.90;;;;;;5137894;27;20231;-65
2022/10/05 11:27:14;;;;;;;4.43;3.60;;;16.80;99.90;;;;;;5137792;27;20628;-66
2022/10/05 11:30:11;;;;;;;4.18;3.78;;;17.20;99.90;;;;;;5118221;27;20267;-65
2022/10/05 11:32:55;;;;;;;3.63;3.33;;;17.70;99.90;;;;;;5117212;28;20224;-67
2022/10/05 11:35:27;;;;;;;3.80;3.40;;;18.10;99.90;;;;;;5117600;28;20198;-67
2022/10/05 11:38:04;;;;;;;4.53;3.33;;;18.20;99.90;;;;;;5131881;27;20191;-66
2022/10/05 11:40:36;;;;;;;4.50;3.30;;;18.20;99.90;;;;;;5137829;27;20223;-66
2022/10/05 11:43:22;;;;;;;4.68;3.50;;;17.90;99.90;;;;;;5137676;27;20195;-68
2022/10/05 11:46:07;;;;;;;6.57;3.55;;;18.10;99.90;;;;;;5137512;27;20219;-67
2022/10/05 11:48:50;;;;;;;3.42;3.10;;;18.30;99.90;;;;;;5135983;27;20175;-67
2022/10/05 11:51:47;;;;;;;4.60;3.30;;;18.30;99.90;;;;;;5137494;27;20187;-67
2022/10/05 11:54:36;;;;;;;3.65;2.85;;;18.50;99.90;;;;;;5137468;27;20153;-67
2022/10/05 11:57:16;;;;;;;7.63;3.38;;;18.80;99.90;;;;;;5137591;27;20172;-67
2022/10/05 12:00:00;;;;;;;3.85;3.30;;;18.70;99.90;;;;;;5116519;27;20204;-67
2022/10/05 12:02:44;;;;;;;4.07;3.50;;;18.70;99.90;;;;;;5116449;28;20260;-67
2022/10/05 12:05:17;;;;;;;5.82;3.45;;;18.90;99.90;;;;;;5116362;28;20203;-67
2022/10/05 12:08:03;;;;;;;4.35;3.35;;;19.00;99.90;;;;;;5130592;27;20194;-67
2022/10/05 12:11:10;;;;;;;3.95;3.10;;;18.90;99.90;;;;;;5136460;27;20199;-67
2022/10/05 12:13:47;;;;;;;3.20;2.90;;;19.10;99.90;;;;;;5138396;27;20180;-67
2022/10/05 12:16:19;;;;;;;6.38;3.42;;;19.20;99.90;;;;;;5137690;27;20201;-67
2022/10/05 12:18:49;;;;;;;6.75;3.50;;;19.40;99.90;;;;;;5137311;27;20168;-68
2022/10/05 12:21:23;;;;;;;4.25;3.53;;;19.40;99.90;;;;;;5136541;27;20188;-67
2022/10/05 12:23:55;;;;;;;3.60;3.30;;;19.30;99.90;;;;;;5136197;27;20228;-67
2022/10/05 12:26:43;;;;;;;4.53;3.85;;;19.20;99.90;;;;;;5135070;27;20206;-67
2022/10/05 12:29:42;;;;;;;6.45;3.30;;;19.30;99.90;;;;;;5120687;27;20207;-67
2022/10/05 12:32:15;;;;;;;4.75;3.30;;;19.50;99.90;;;;;;5113658;28;20211;-67
2022/10/05 12:34:56;;;;;;;3.35;3.05;;;19.70;99.90;;;;;;5115793;28;20503;-67
2022/10/05 12:37:53;;;;;;;5.13;3.25;;;19.60;99.90;;;;;;5127021;27;20237;-67
2022/10/05 12:40:51;;;;;;;2.92;2.72;;;19.80;99.90;;;;;;5136478;27;20226;-67
2022/10/05 12:43:19;;;;;;;3.83;2.88;;;20.10;99.90;;;;;;5133810;27;20290;-67
2022/10/05 12:45:58;;;;;;;3.17;2.90;;;20.00;99.90;;;;;;5136162;27;20192;-67
2022/10/05 12:49:05;;;;;;;3.00;2.60;;;20.10;99.90;;;;;;5136675;27;20492;-67
2022/10/05 12:51:34;;;;;;;3.88;2.88;;;20.30;99.90;;;;;;5135813;27;20187;-67
2022/10/05 12:54:15;;;;;;;3.85;3.10;;;20.40;99.90;;;;;;5135967;27;20632;-67
2022/10/05 12:56:58;;;;;;;5.68;3.20;;;20.30;99.90;;;;;;5135963;27;20160;-68
2022/10/05 12:59:31;;;;;;;3.63;3.08;;;20.10;99.90;;;;;;5118141;27;20259;-68
2022/10/05 13:02:28;;;;;;;3.33;2.90;;;20.20;99.90;;;;;;5113902;28;20233;-67
2022/10/05 13:05:12;;;;;;;3.70;3.15;;;20.30;99.90;;;;;;5115443;28;20237;-67
2022/10/05 13:08:29;;;;;;;3.55;3.10;;;20.50;99.90;;;;;;5128510;27;20198;-68
2022/10/05 13:11:12;;;;;;;4.10;2.63;;;20.50;99.90;;;;;;5112065;27;20231;-67
2022/10/05 13:13:47;;;;;;;3.28;2.97;;;20.50;99.90;;;;;;5135693;27;20152;-67
2022/10/05 13:16:45;;;;;;;3.55;3.10;;;20.50;99.90;;;;;;5134214;27;20175;-67
2022/10/05 13:19:23;;;;;;;3.50;2.70;;;20.40;99.90;;;;;;5135373;27;20180;-67
2022/10/05 13:22:22;;;;;;;3.13;2.83;;;20.30;99.90;;;;;;5135453;27;20267;-67
2022/10/05 13:25:06;;;;;;;3.72;3.00;;;20.40;99.90;;;;;;5133946;27;20203;-68
2022/10/05 13:27:53;;;;;;;3.08;2.65;;;20.40;99.90;;;;;;5133252;27;20623;-68
2022/10/05 13:30:20;;;;;;;4.65;2.80;;;20.40;99.90;;;;;;5113212;28;20172;-69
2022/10/05 13:32:55;;;;;;;5.55;2.80;;;20.40;99.90;;;;;;5113513;28;20225;-68
2022/10/05 13:35:33;;;;;;;4.07;2.60;;;20.40;99.90;;;;;;5113408;28;20711;-68
2022/10/05 13:38:27;;;;;;;4.40;2.97;;;20.40;99.90;;;;;;5131008;27;20188;-68
2022/10/05 13:41:07;;;;;;;2.28;2.15;;;20.50;99.90;;;;;;5111150;27;20298;-68
2022/10/05 13:43:57;;;;;;;4.70;2.60;;;20.60;99.90;;;;;;5135423;27;20674;-66
2022/10/05 13:46:37;;;;;;;4.35;2.33;;;20.50;99.90;;;;;;5135430;27;20191;-67
2022/10/05 13:49:28;;;;;;;2.72;2.53;;;20.50;99.90;;;;;;5135378;27;20152;-69
2022/10/05 13:52:12;;;;;;;3.70;2.70;;;20.50;99.90;;;;;;5134907;27;20219;-69
2022/10/05 13:54:56;;;;;;;2.85;2.53;;;20.50;99.90;;;;;;5135811;27;20158;-67
2022/10/05 13:57:34;;;;;;;5.43;2.58;;;20.50;99.90;;;;;;5134894;27;20616;-67
2022/10/05 14:00:15;;;;;;;4.07;2.40;;;20.40;99.90;;;;;;5115106;28;20156;-68
2022/10/05 14:02:46;;;;;;;3.08;2.50;;;20.30;99.90;;;;;;5114357;28;20152;-68
2022/10/05 14:05:21;;;;;;;2.47;2.28;;;20.30;99.90;;;;;;5112894;28;20227;-68
2022/10/05 14:07:55;;;;;;;2.47;2.05;;;20.20;99.90;;;;;;5129085;27;20175;-68
2022/10/05 14:10:35;;;;;;;4.10;2.53;;;20.20;99.90;;;;;;5135020;27;20178;-68